sensor_id;sensor_type;location;lat;lon;timestamp;P1;durP1;ratioP1;P2;durP2;ratioP2
56667;SDS011;42542;48.360;10.958;2023-05-07T00:01:14;14.27;;;6.55;;
56667;SDS011;42542;48.360;10.958;2023-05-07T00:04:19;12.75;;;6.50;;
56667;SDS011;42542;48.360;10.958;2023-05-07T00:07:23;12.88;;;6.53;;
56667;SDS011;42542;48.360;10.958;2023-05-07T00:10:25;12.60;;;6.23;;
56667;SDS011;42542;48.360;10.958;2023-05-07T00:13:27;11.95;;;5.70;;
56667;SDS011;42542;48.360;10.958;2023-05-07T00:16:29;11.25;;;5.65;;
56667;SDS011;42542;48.360;10.958;2023-05-07T00:19:32;11.45;;;5.68;;
56667;SDS011;42542;48.360;10.958;2023-05-07T00:22:35;11.97;;;5.90;;
56667;SDS011;42542;48.360;10.958;2023-05-07T00:25:40;13.02;;;5.30;;
56667;SDS011;42542;48.360;10.958;2023-05-07T00:28:42;10.77;;;5.15;;
56667;SDS011;42542;48.360;10.958;2023-05-07T00:31:43;10.30;;;5.30;;
56667;SDS011;42542;48.360;10.958;2023-05-07T00:34:47;11.47;;;5.60;;
56667;SDS011;42542;48.360;10.958;2023-05-07T00:37:48;11.13;;;5.25;;
56667;SDS011;42542;48.360;10.958;2023-05-07T00:40:51;10.25;;;5.32;;
56667;SDS011;42542;48.360;10.958;2023-05-07T00:43:54;11.07;;;5.75;;
56667;SDS011;42542;48.360;10.958;2023-05-07T00:46:57;11.75;;;5.57;;
56667;SDS011;42542;48.360;10.958;2023-05-07T00:50:00;10.63;;;5.72;;
56667;SDS011;42542;48.360;10.958;2023-05-07T00:53:08;13.10;;;5.78;;
56667;SDS011;42542;48.360;10.958;2023-05-07T00:56:11;12.40;;;5.90;;
56667;SDS011;42542;48.360;10.958;2023-05-07T00:59:13;13.30;;;6.13;;
56667;SDS011;42542;48.360;10.958;2023-05-07T01:02:16;11.35;;;6.20;;
56667;SDS011;42542;48.360;10.958;2023-05-07T01:05:19;12.60;;;5.60;;
56667;SDS011;42542;48.360;10.958;2023-05-07T01:08:24;11.30;;;5.53;;
56667;SDS011;42542;48.360;10.958;2023-05-07T01:11:30;15.60;;;5.88;;
56667;SDS011;42542;48.360;10.958;2023-05-07T01:14:33;13.25;;;5.47;;
56667;SDS011;42542;48.360;10.958;2023-05-07T01:17:39;12.40;;;5.67;;
56667;SDS011;42542;48.360;10.958;2023-05-07T01:20:48;12.65;;;6.07;;
56667;SDS011;42542;48.360;10.958;2023-05-07T01:23:52;12.48;;;5.45;;
56667;SDS011;42542;48.360;10.958;2023-05-07T01:26:57;14.17;;;6.23;;
56667;SDS011;42542;48.360;10.958;2023-05-07T01:29:59;12.82;;;6.05;;
56667;SDS011;42542;48.360;10.958;2023-05-07T01:33:06;12.68;;;6.22;;
56667;SDS011;42542;48.360;10.958;2023-05-07T01:36:14;11.65;;;5.50;;
56667;SDS011;42542;48.360;10.958;2023-05-07T01:39:16;13.15;;;5.82;;
56667;SDS011;42542;48.360;10.958;2023-05-07T01:42:19;17.25;;;5.93;;
56667;SDS011;42542;48.360;10.958;2023-05-07T01:45:21;10.82;;;5.60;;
56667;SDS011;42542;48.360;10.958;2023-05-07T01:48:24;11.50;;;5.60;;
56667;SDS011;42542;48.360;10.958;2023-05-07T01:51:26;12.73;;;5.95;;
56667;SDS011;42542;48.360;10.958;2023-05-07T01:54:30;11.57;;;5.50;;
56667;SDS011;42542;48.360;10.958;2023-05-07T01:57:34;12.73;;;5.63;;
56667;SDS011;42542;48.360;10.958;2023-05-07T02:00:39;10.93;;;5.57;;
56667;SDS011;42542;48.360;10.958;2023-05-07T02:03:42;13.07;;;5.55;;
56667;SDS011;42542;48.360;10.958;2023-05-07T02:06:53;11.63;;;5.32;;
56667;SDS011;42542;48.360;10.958;2023-05-07T02:09:55;11.57;;;5.50;;
56667;SDS011;42542;48.360;10.958;2023-05-07T02:12:59;11.38;;;6.05;;
56667;SDS011;42542;48.360;10.958;2023-05-07T02:16:03;10.90;;;5.60;;
56667;SDS011;42542;48.360;10.958;2023-05-07T02:19:06;10.18;;;5.22;;
56667;SDS011;42542;48.360;10.958;2023-05-07T02:22:10;10.33;;;5.40;;
56667;SDS011;42542;48.360;10.958;2023-05-07T02:25:13;10.75;;;5.45;;
56667;SDS011;42542;48.360;10.958;2023-05-07T02:28:16;10.77;;;5.40;;
56667;SDS011;42542;48.360;10.958;2023-05-07T02:31:25;13.07;;;5.80;;
56667;SDS011;42542;48.360;10.958;2023-05-07T02:34:27;11.07;;;5.10;;
56667;SDS011;42542;48.360;10.958;2023-05-07T02:37:32;11.88;;;5.68;;
56667;SDS011;42542;48.360;10.958;2023-05-07T02:40:34;10.60;;;5.22;;
56667;SDS011;42542;48.360;10.958;2023-05-07T02:43:40;10.50;;;5.13;;
56667;SDS011;42542;48.360;10.958;2023-05-07T02:46:42;10.80;;;5.32;;
56667;SDS011;42542;48.360;10.958;2023-05-07T02:49:47;11.52;;;5.53;;
56667;SDS011;42542;48.360;10.958;2023-05-07T02:52:48;10.80;;;5.00;;
56667;SDS011;42542;48.360;10.958;2023-05-07T02:55:57;9.65;;;5.47;;
56667;SDS011;42542;48.360;10.958;2023-05-07T02:59:02;14.38;;;5.30;;
56667;SDS011;42542;48.360;10.958;2023-05-07T03:02:08;11.07;;;5.35;;
56667;SDS011;42542;48.360;10.958;2023-05-07T03:05:10;10.77;;;5.23;;
56667;SDS011;42542;48.360;10.958;2023-05-07T03:08:14;10.18;;;5.40;;
56667;SDS011;42542;48.360;10.958;2023-05-07T03:11:17;10.98;;;5.22;;
56667;SDS011;42542;48.360;10.958;2023-05-07T03:14:20;11.20;;;5.20;;
56667;SDS011;42542;48.360;10.958;2023-05-07T03:17:25;11.57;;;5.60;;
56667;SDS011;42542;48.360;10.958;2023-05-07T03:20:27;11.45;;;5.40;;
56667;SDS011;42542;48.360;10.958;2023-05-07T03:23:33;11.68;;;5.60;;
56667;SDS011;42542;48.360;10.958;2023-05-07T03:26:35;10.83;;;5.27;;
56667;SDS011;42542;48.360;10.958;2023-05-07T03:29:37;11.38;;;5.53;;
56667;SDS011;42542;48.360;10.958;2023-05-07T03:32:39;10.90;;;5.30;;
56667;SDS011;42542;48.360;10.958;2023-05-07T03:35:45;12.07;;;5.55;;
56667;SDS011;42542;48.360;10.958;2023-05-07T03:38:53;11.25;;;5.20;;
56667;SDS011;42542;48.360;10.958;2023-05-07T03:41:59;12.27;;;5.20;;
56667;SDS011;42542;48.360;10.958;2023-05-07T03:45:04;10.55;;;5.30;;
56667;SDS011;42542;48.360;10.958;2023-05-07T03:48:08;14.40;;;5.00;;
56667;SDS011;42542;48.360;10.958;2023-05-07T03:51:10;11.10;;;5.18;;
56667;SDS011;42542;48.360;10.958;2023-05-07T03:54:13;12.18;;;5.50;;
56667;SDS011;42542;48.360;10.958;2023-05-07T03:57:18;11.67;;;5.10;;
56667;SDS011;42542;48.360;10.958;2023-05-07T04:00:21;10.23;;;5.10;;
56667;SDS011;42542;48.360;10.958;2023-05-07T04:03:24;10.98;;;5.45;;
56667;SDS011;42542;48.360;10.958;2023-05-07T04:06:28;12.18;;;5.50;;
56667;SDS011;42542;48.360;10.958;2023-05-07T04:09:30;11.23;;;5.70;;
56667;SDS011;42542;48.360;10.958;2023-05-07T04:12:33;12.52;;;5.47;;
56667;SDS011;42542;48.360;10.958;2023-05-07T04:15:35;11.82;;;5.57;;
56667;SDS011;42542;48.360;10.958;2023-05-07T04:18:42;11.43;;;5.40;;
56667;SDS011;42542;48.360;10.958;2023-05-07T04:21:44;11.23;;;5.25;;
56667;SDS011;42542;48.360;10.958;2023-05-07T04:24:46;9.85;;;4.75;;
56667;SDS011;42542;48.360;10.958;2023-05-07T04:27:49;12.70;;;5.40;;
56667;SDS011;42542;48.360;10.958;2023-05-07T04:30:52;11.77;;;5.03;;
56667;SDS011;42542;48.360;10.958;2023-05-07T04:33:57;12.65;;;5.50;;
56667;SDS011;42542;48.360;10.958;2023-05-07T04:37:04;11.68;;;5.47;;
56667;SDS011;42542;48.360;10.958;2023-05-07T04:40:06;10.87;;;5.23;;
56667;SDS011;42542;48.360;10.958;2023-05-07T04:43:09;10.75;;;5.32;;
56667;SDS011;42542;48.360;10.958;2023-05-07T04:46:19;11.85;;;5.35;;
56667;SDS011;42542;48.360;10.958;2023-05-07T04:49:23;10.50;;;4.97;;
56667;SDS011;42542;48.360;10.958;2023-05-07T04:52:29;10.23;;;5.45;;
56667;SDS011;42542;48.360;10.958;2023-05-07T04:55:33;12.02;;;5.43;;
56667;SDS011;42542;48.360;10.958;2023-05-07T04:58:36;10.18;;;5.30;;
56667;SDS011;42542;48.360;10.958;2023-05-07T05:01:39;10.85;;;5.38;;
56667;SDS011;42542;48.360;10.958;2023-05-07T05:04:42;10.65;;;5.10;;
56667;SDS011;42542;48.360;10.958;2023-05-07T05:07:44;12.85;;;5.68;;
56667;SDS011;42542;48.360;10.958;2023-05-07T05:10:47;11.83;;;5.60;;
56667;SDS011;42542;48.360;10.958;2023-05-07T05:13:52;11.68;;;5.55;;
56667;SDS011;42542;48.360;10.958;2023-05-07T05:16:54;14.30;;;5.88;;
56667;SDS011;42542;48.360;10.958;2023-05-07T05:20:01;9.83;;;5.07;;
56667;SDS011;42542;48.360;10.958;2023-05-07T05:23:03;10.60;;;5.50;;
56667;SDS011;42542;48.360;10.958;2023-05-07T05:26:07;12.73;;;6.00;;
56667;SDS011;42542;48.360;10.958;2023-05-07T05:29:09;12.95;;;5.75;;
56667;SDS011;42542;48.360;10.958;2023-05-07T05:32:15;11.23;;;5.72;;
56667;SDS011;42542;48.360;10.958;2023-05-07T05:35:18;11.20;;;5.75;;
56667;SDS011;42542;48.360;10.958;2023-05-07T05:38:21;12.40;;;5.93;;
56667;SDS011;42542;48.360;10.958;2023-05-07T05:41:23;11.60;;;5.80;;
56667;SDS011;42542;48.360;10.958;2023-05-07T05:44:30;12.18;;;6.10;;
56667;SDS011;42542;48.360;10.958;2023-05-07T05:47:35;11.80;;;6.47;;
56667;SDS011;42542;48.360;10.958;2023-05-07T05:50:38;12.60;;;6.28;;
56667;SDS011;42542;48.360;10.958;2023-05-07T05:53:41;10.85;;;6.13;;
56667;SDS011;42542;48.360;10.958;2023-05-07T05:56:43;11.65;;;6.80;;
56667;SDS011;42542;48.360;10.958;2023-05-07T05:59:48;14.10;;;6.70;;
56667;SDS011;42542;48.360;10.958;2023-05-07T06:02:50;11.90;;;6.17;;
56667;SDS011;42542;48.360;10.958;2023-05-07T06:05:57;13.38;;;6.97;;
56667;SDS011;42542;48.360;10.958;2023-05-07T06:09:01;12.35;;;6.60;;
56667;SDS011;42542;48.360;10.958;2023-05-07T06:12:11;11.73;;;6.47;;
56667;SDS011;42542;48.360;10.958;2023-05-07T06:15:13;13.23;;;6.75;;
56667;SDS011;42542;48.360;10.958;2023-05-07T06:18:17;11.82;;;6.40;;
56667;SDS011;42542;48.360;10.958;2023-05-07T06:21:20;12.90;;;6.68;;
56667;SDS011;42542;48.360;10.958;2023-05-07T06:24:22;12.33;;;6.60;;
56667;SDS011;42542;48.360;10.958;2023-05-07T06:27:25;12.80;;;7.07;;
56667;SDS011;42542;48.360;10.958;2023-05-07T06:30:32;12.95;;;7.32;;
56667;SDS011;42542;48.360;10.958;2023-05-07T06:33:36;13.95;;;6.95;;
56667;SDS011;42542;48.360;10.958;2023-05-07T06:36:40;14.68;;;6.97;;
56667;SDS011;42542;48.360;10.958;2023-05-07T06:40:07;13.23;;;7.40;;
56667;SDS011;42542;48.360;10.958;2023-05-07T06:43:13;15.10;;;7.10;;
56667;SDS011;42542;48.360;10.958;2023-05-07T06:46:24;14.00;;;7.57;;
56667;SDS011;42542;48.360;10.958;2023-05-07T06:49:28;12.60;;;6.78;;
56667;SDS011;42542;48.360;10.958;2023-05-07T06:52:30;14.45;;;7.15;;
56667;SDS011;42542;48.360;10.958;2023-05-07T06:55:35;14.13;;;7.40;;
56667;SDS011;42542;48.360;10.958;2023-05-07T06:58:44;13.60;;;7.27;;
56667;SDS011;42542;48.360;10.958;2023-05-07T07:01:47;13.45;;;7.40;;
56667;SDS011;42542;48.360;10.958;2023-05-07T07:04:54;13.75;;;7.20;;
56667;SDS011;42542;48.360;10.958;2023-05-07T07:08:00;13.27;;;7.47;;
56667;SDS011;42542;48.360;10.958;2023-05-07T07:11:03;12.30;;;7.40;;
56667;SDS011;42542;48.360;10.958;2023-05-07T07:14:06;13.38;;;7.65;;
56667;SDS011;42542;48.360;10.958;2023-05-07T07:17:14;13.93;;;7.47;;
56667;SDS011;42542;48.360;10.958;2023-05-07T07:20:16;13.27;;;7.38;;
56667;SDS011;42542;48.360;10.958;2023-05-07T07:23:21;13.77;;;7.60;;
56667;SDS011;42542;48.360;10.958;2023-05-07T07:26:23;13.40;;;7.40;;
56667;SDS011;42542;48.360;10.958;2023-05-07T07:29:24;13.02;;;7.22;;
56667;SDS011;42542;48.360;10.958;2023-05-07T07:32:29;13.05;;;7.47;;
56667;SDS011;42542;48.360;10.958;2023-05-07T07:35:34;13.10;;;7.10;;
56667;SDS011;42542;48.360;10.958;2023-05-07T07:38:39;13.60;;;7.20;;
56667;SDS011;42542;48.360;10.958;2023-05-07T07:41:42;12.68;;;7.47;;
56667;SDS011;42542;48.360;10.958;2023-05-07T07:44:44;13.90;;;7.35;;
56667;SDS011;42542;48.360;10.958;2023-05-07T07:47:49;12.93;;;7.07;;
56667;SDS011;42542;48.360;10.958;2023-05-07T07:50:52;12.10;;;6.93;;
56667;SDS011;42542;48.360;10.958;2023-05-07T07:53:54;12.73;;;6.82;;
56667;SDS011;42542;48.360;10.958;2023-05-07T07:56:57;12.98;;;6.70;;
56667;SDS011;42542;48.360;10.958;2023-05-07T08:00:01;12.27;;;6.68;;
56667;SDS011;42542;48.360;10.958;2023-05-07T08:03:05;13.40;;;6.40;;
56667;SDS011;42542;48.360;10.958;2023-05-07T08:06:12;12.52;;;6.20;;
56667;SDS011;42542;48.360;10.958;2023-05-07T08:09:16;11.75;;;6.13;;
56667;SDS011;42542;48.360;10.958;2023-05-07T08:12:20;10.30;;;5.68;;
56667;SDS011;42542;48.360;10.958;2023-05-07T08:15:22;10.70;;;5.93;;
56667;SDS011;42542;48.360;10.958;2023-05-07T08:18:25;10.05;;;5.60;;
56667;SDS011;42542;48.360;10.958;2023-05-07T08:21:28;11.25;;;5.82;;
56667;SDS011;42542;48.360;10.958;2023-05-07T08:24:36;10.43;;;5.45;;
56667;SDS011;42542;48.360;10.958;2023-05-07T08:27:38;10.15;;;4.40;;
56667;SDS011;42542;48.360;10.958;2023-05-07T08:30:40;8.97;;;4.23;;
56667;SDS011;42542;48.360;10.958;2023-05-07T08:33:42;8.32;;;4.53;;
56667;SDS011;42542;48.360;10.958;2023-05-07T08:36:44;8.30;;;4.40;;
56667;SDS011;42542;48.360;10.958;2023-05-07T08:39:51;8.35;;;4.13;;
56667;SDS011;42542;48.360;10.958;2023-05-07T08:42:57;9.55;;;3.78;;
56667;SDS011;42542;48.360;10.958;2023-05-07T08:46:00;10.37;;;4.27;;
56667;SDS011;42542;48.360;10.958;2023-05-07T08:49:07;9.55;;;4.07;;
56667;SDS011;42542;48.360;10.958;2023-05-07T08:52:11;8.65;;;4.60;;
56667;SDS011;42542;48.360;10.958;2023-05-07T08:55:14;10.50;;;5.35;;
56667;SDS011;42542;48.360;10.958;2023-05-07T08:58:17;9.45;;;5.13;;
56667;SDS011;42542;48.360;10.958;2023-05-07T09:01:20;8.67;;;4.80;;
56667;SDS011;42542;48.360;10.958;2023-05-07T09:04:25;8.93;;;5.05;;
56667;SDS011;42542;48.360;10.958;2023-05-07T09:07:27;9.88;;;4.80;;
56667;SDS011;42542;48.360;10.958;2023-05-07T09:10:33;8.60;;;4.18;;
56667;SDS011;42542;48.360;10.958;2023-05-07T09:13:38;7.40;;;4.18;;
56667;SDS011;42542;48.360;10.958;2023-05-07T09:16:41;7.80;;;4.03;;
56667;SDS011;42542;48.360;10.958;2023-05-07T09:19:44;8.75;;;4.50;;
56667;SDS011;42542;48.360;10.958;2023-05-07T09:22:50;8.45;;;4.15;;
56667;SDS011;42542;48.360;10.958;2023-05-07T09:25:54;8.50;;;4.30;;
56667;SDS011;42542;48.360;10.958;2023-05-07T09:29:05;8.60;;;4.10;;
56667;SDS011;42542;48.360;10.958;2023-05-07T09:32:09;11.57;;;4.27;;
56667;SDS011;42542;48.360;10.958;2023-05-07T09:35:16;8.80;;;3.65;;
56667;SDS011;42542;48.360;10.958;2023-05-07T09:38:25;7.78;;;3.20;;
56667;SDS011;42542;48.360;10.958;2023-05-07T09:41:33;6.72;;;3.00;;
56667;SDS011;42542;48.360;10.958;2023-05-07T09:44:54;8.30;;;3.50;;
56667;SDS011;42542;48.360;10.958;2023-05-07T09:47:59;7.43;;;3.17;;
56667;SDS011;42542;48.360;10.958;2023-05-07T09:51:29;6.93;;;3.00;;
56667;SDS011;42542;48.360;10.958;2023-05-07T09:54:36;6.30;;;2.90;;
56667;SDS011;42542;48.360;10.958;2023-05-07T09:57:45;7.15;;;2.90;;
56667;SDS011;42542;48.360;10.958;2023-05-07T10:00:49;5.75;;;2.50;;
56667;SDS011;42542;48.360;10.958;2023-05-07T10:03:54;6.10;;;2.23;;
56667;SDS011;42542;48.360;10.958;2023-05-07T10:06:58;6.22;;;2.22;;
56667;SDS011;42542;48.360;10.958;2023-05-07T10:10:04;5.18;;;2.00;;
56667;SDS011;42542;48.360;10.958;2023-05-07T10:13:12;5.30;;;2.00;;
56667;SDS011;42542;48.360;10.958;2023-05-07T10:16:20;5.82;;;2.00;;
56667;SDS011;42542;48.360;10.958;2023-05-07T10:19:24;5.40;;;1.90;;
56667;SDS011;42542;48.360;10.958;2023-05-07T10:22:31;4.80;;;1.90;;
56667;SDS011;42542;48.360;10.958;2023-05-07T10:25:40;5.88;;;2.05;;
56667;SDS011;42542;48.360;10.958;2023-05-07T10:28:52;5.00;;;1.85;;
56667;SDS011;42542;48.360;10.958;2023-05-07T10:32:11;4.90;;;2.00;;
56667;SDS011;42542;48.360;10.958;2023-05-07T10:35:40;6.40;;;2.30;;
56667;SDS011;42542;48.360;10.958;2023-05-07T10:38:45;5.80;;;2.13;;
56667;SDS011;42542;48.360;10.958;2023-05-07T10:41:52;5.30;;;1.98;;
56667;SDS011;42542;48.360;10.958;2023-05-07T10:44:55;5.20;;;1.90;;
56667;SDS011;42542;48.360;10.958;2023-05-07T10:51:35;4.80;;;1.80;;
56667;SDS011;42542;48.360;10.958;2023-05-07T10:58:51;5.78;;;1.80;;
56667;SDS011;42542;48.360;10.958;2023-05-07T11:02:03;4.85;;;1.90;;
56667;SDS011;42542;48.360;10.958;2023-05-07T11:05:29;4.25;;;1.67;;
56667;SDS011;42542;48.360;10.958;2023-05-07T11:08:58;5.30;;;1.73;;
56667;SDS011;42542;48.360;10.958;2023-05-07T11:15:47;5.13;;;1.90;;
56667;SDS011;42542;48.360;10.958;2023-05-07T11:18:58;4.90;;;1.70;;
56667;SDS011;42542;48.360;10.958;2023-05-07T11:22:26;5.78;;;1.83;;
56667;SDS011;42542;48.360;10.958;2023-05-07T11:25:45;5.57;;;2.10;;
56667;SDS011;42542;48.360;10.958;2023-05-07T11:28:53;5.05;;;2.03;;
56667;SDS011;42542;48.360;10.958;2023-05-07T11:31:58;4.82;;;1.90;;
56667;SDS011;42542;48.360;10.958;2023-05-07T11:35:08;4.82;;;2.22;;
56667;SDS011;42542;48.360;10.958;2023-05-07T11:38:11;6.32;;;2.00;;
56667;SDS011;42542;48.360;10.958;2023-05-07T11:41:16;4.90;;;2.20;;
56667;SDS011;42542;48.360;10.958;2023-05-07T11:44:18;6.20;;;2.00;;
56667;SDS011;42542;48.360;10.958;2023-05-07T11:47:21;5.60;;;2.20;;
56667;SDS011;42542;48.360;10.958;2023-05-07T11:50:23;5.88;;;2.10;;
56667;SDS011;42542;48.360;10.958;2023-05-07T11:53:26;6.60;;;2.30;;
56667;SDS011;42542;48.360;10.958;2023-05-07T11:56:33;5.50;;;2.20;;
56667;SDS011;42542;48.360;10.958;2023-05-07T11:59:41;4.73;;;2.07;;
56667;SDS011;42542;48.360;10.958;2023-05-07T12:02:53;5.70;;;2.20;;
56667;SDS011;42542;48.360;10.958;2023-05-07T12:05:55;6.63;;;2.10;;
56667;SDS011;42542;48.360;10.958;2023-05-07T12:08:57;5.47;;;2.40;;
56667;SDS011;42542;48.360;10.958;2023-05-07T12:12:03;5.87;;;2.23;;
56667;SDS011;42542;48.360;10.958;2023-05-07T12:15:07;5.63;;;2.50;;
56667;SDS011;42542;48.360;10.958;2023-05-07T12:18:11;5.43;;;2.30;;
56667;SDS011;42542;48.360;10.958;2023-05-07T12:21:14;6.70;;;2.35;;
56667;SDS011;42542;48.360;10.958;2023-05-07T12:24:16;5.50;;;2.30;;
56667;SDS011;42542;48.360;10.958;2023-05-07T12:27:22;5.57;;;2.20;;
56667;SDS011;42542;48.360;10.958;2023-05-07T12:30:26;5.83;;;2.37;;
56667;SDS011;42542;48.360;10.958;2023-05-07T12:33:28;5.45;;;2.20;;
56667;SDS011;42542;48.360;10.958;2023-05-07T12:36:39;5.30;;;2.45;;
56667;SDS011;42542;48.360;10.958;2023-05-07T12:39:47;5.72;;;2.58;;
56667;SDS011;42542;48.360;10.958;2023-05-07T12:42:52;6.53;;;2.70;;
56667;SDS011;42542;48.360;10.958;2023-05-07T12:46:05;6.50;;;2.70;;
56667;SDS011;42542;48.360;10.958;2023-05-07T12:49:11;5.47;;;2.60;;
56667;SDS011;42542;48.360;10.958;2023-05-07T12:52:13;6.65;;;2.70;;
56667;SDS011;42542;48.360;10.958;2023-05-07T12:55:16;6.32;;;2.72;;
56667;SDS011;42542;48.360;10.958;2023-05-07T12:58:28;5.93;;;2.70;;
56667;SDS011;42542;48.360;10.958;2023-05-07T13:01:33;5.70;;;2.63;;
56667;SDS011;42542;48.360;10.958;2023-05-07T13:04:37;6.00;;;2.70;;
56667;SDS011;42542;48.360;10.958;2023-05-07T13:07:38;5.82;;;2.60;;
56667;SDS011;42542;48.360;10.958;2023-05-07T13:10:44;5.80;;;2.40;;
56667;SDS011;42542;48.360;10.958;2023-05-07T13:13:47;5.83;;;2.70;;
56667;SDS011;42542;48.360;10.958;2023-05-07T13:16:49;6.90;;;2.50;;
56667;SDS011;42542;48.360;10.958;2023-05-07T13:19:52;5.72;;;2.55;;
56667;SDS011;42542;48.360;10.958;2023-05-07T13:22:57;5.95;;;2.67;;
56667;SDS011;42542;48.360;10.958;2023-05-07T13:25:59;7.13;;;2.60;;
56667;SDS011;42542;48.360;10.958;2023-05-07T13:29:06;6.30;;;2.73;;
56667;SDS011;42542;48.360;10.958;2023-05-07T13:32:09;5.20;;;2.47;;
56667;SDS011;42542;48.360;10.958;2023-05-07T13:35:10;5.60;;;2.72;;
56667;SDS011;42542;48.360;10.958;2023-05-07T13:38:12;6.22;;;2.95;;
56667;SDS011;42542;48.360;10.958;2023-05-07T13:41:15;7.60;;;2.80;;
56667;SDS011;42542;48.360;10.958;2023-05-07T13:44:17;5.30;;;2.50;;
56667;SDS011;42542;48.360;10.958;2023-05-07T13:47:19;6.53;;;2.77;;
56667;SDS011;42542;48.360;10.958;2023-05-07T13:50:24;6.90;;;2.70;;
56667;SDS011;42542;48.360;10.958;2023-05-07T13:53:28;5.65;;;2.60;;
56667;SDS011;42542;48.360;10.958;2023-05-07T13:56:33;5.55;;;2.50;;
56667;SDS011;42542;48.360;10.958;2023-05-07T13:59:38;7.13;;;2.70;;
56667;SDS011;42542;48.360;10.958;2023-05-07T14:02:40;6.23;;;2.60;;
56667;SDS011;42542;48.360;10.958;2023-05-07T14:05:42;6.22;;;2.50;;
56667;SDS011;42542;48.360;10.958;2023-05-07T14:08:45;5.68;;;2.53;;
56667;SDS011;42542;48.360;10.958;2023-05-07T14:11:47;5.70;;;2.60;;
56667;SDS011;42542;48.360;10.958;2023-05-07T14:14:53;6.93;;;2.83;;
56667;SDS011;42542;48.360;10.958;2023-05-07T14:17:55;6.23;;;2.93;;
56667;SDS011;42542;48.360;10.958;2023-05-07T14:20:59;5.57;;;2.80;;
56667;SDS011;42542;48.360;10.958;2023-05-07T14:24:01;6.07;;;2.70;;
56667;SDS011;42542;48.360;10.958;2023-05-07T14:27:05;7.20;;;2.78;;
56667;SDS011;42542;48.360;10.958;2023-05-07T14:30:07;5.80;;;2.77;;
56667;SDS011;42542;48.360;10.958;2023-05-07T14:33:10;8.43;;;2.60;;
56667;SDS011;42542;48.360;10.958;2023-05-07T14:36:11;6.55;;;2.58;;
56667;SDS011;42542;48.360;10.958;2023-05-07T14:39:14;6.10;;;2.63;;
56667;SDS011;42542;48.360;10.958;2023-05-07T14:42:15;5.53;;;2.33;;
56667;SDS011;42542;48.360;10.958;2023-05-07T14:45:18;5.63;;;2.80;;
56667;SDS011;42542;48.360;10.958;2023-05-07T14:48:24;5.57;;;2.60;;
56667;SDS011;42542;48.360;10.958;2023-05-07T14:51:26;6.25;;;2.97;;
56667;SDS011;42542;48.360;10.958;2023-05-07T14:54:30;5.65;;;2.60;;
56667;SDS011;42542;48.360;10.958;2023-05-07T14:57:33;6.45;;;2.72;;
56667;SDS011;42542;48.360;10.958;2023-05-07T15:00:36;7.23;;;3.00;;
56667;SDS011;42542;48.360;10.958;2023-05-07T15:03:39;5.37;;;2.60;;
56667;SDS011;42542;48.360;10.958;2023-05-07T15:06:41;6.03;;;2.50;;
56667;SDS011;42542;48.360;10.958;2023-05-07T15:09:42;5.72;;;2.72;;
56667;SDS011;42542;48.360;10.958;2023-05-07T15:12:45;6.50;;;2.50;;
56667;SDS011;42542;48.360;10.958;2023-05-07T15:15:48;5.67;;;2.50;;
56667;SDS011;42542;48.360;10.958;2023-05-07T15:18:51;6.77;;;2.73;;
56667;SDS011;42542;48.360;10.958;2023-05-07T15:21:53;6.28;;;3.00;;
56667;SDS011;42542;48.360;10.958;2023-05-07T15:24:58;5.60;;;2.42;;
56667;SDS011;42542;48.360;10.958;2023-05-07T15:28:00;5.70;;;2.70;;
56667;SDS011;42542;48.360;10.958;2023-05-07T15:31:02;5.47;;;2.67;;
56667;SDS011;42542;48.360;10.958;2023-05-07T15:34:04;7.13;;;3.07;;
56667;SDS011;42542;48.360;10.958;2023-05-07T15:37:06;9.20;;;2.65;;
56667;SDS011;42542;48.360;10.958;2023-05-07T15:40:07;7.07;;;3.00;;
56667;SDS011;42542;48.360;10.958;2023-05-07T15:43:11;7.55;;;2.63;;
56667;SDS011;42542;48.360;10.958;2023-05-07T15:46:16;6.53;;;3.03;;
56667;SDS011;42542;48.360;10.958;2023-05-07T15:49:25;7.80;;;2.90;;
56667;SDS011;42542;48.360;10.958;2023-05-07T15:52:28;5.75;;;2.67;;
56667;SDS011;42542;48.360;10.958;2023-05-07T15:55:31;6.55;;;2.80;;
56667;SDS011;42542;48.360;10.958;2023-05-07T15:58:33;6.95;;;2.92;;
56667;SDS011;42542;48.360;10.958;2023-05-07T16:01:35;6.30;;;2.80;;
56667;SDS011;42542;48.360;10.958;2023-05-07T16:04:37;6.07;;;2.90;;
56667;SDS011;42542;48.360;10.958;2023-05-07T16:07:39;5.72;;;2.70;;
56667;SDS011;42542;48.360;10.958;2023-05-07T16:10:41;6.10;;;2.80;;
56667;SDS011;42542;48.360;10.958;2023-05-07T16:13:43;5.85;;;3.00;;
56667;SDS011;42542;48.360;10.958;2023-05-07T16:16:45;6.03;;;2.90;;
56667;SDS011;42542;48.360;10.958;2023-05-07T16:19:49;7.10;;;3.13;;
56667;SDS011;42542;48.360;10.958;2023-05-07T16:22:51;6.35;;;2.83;;
56667;SDS011;42542;48.360;10.958;2023-05-07T16:25:54;7.25;;;3.00;;
56667;SDS011;42542;48.360;10.958;2023-05-07T16:28:56;5.88;;;2.83;;
56667;SDS011;42542;48.360;10.958;2023-05-07T16:32:00;7.97;;;3.00;;
56667;SDS011;42542;48.360;10.958;2023-05-07T16:35:02;7.47;;;2.90;;
56667;SDS011;42542;48.360;10.958;2023-05-07T16:38:04;7.13;;;2.97;;
56667;SDS011;42542;48.360;10.958;2023-05-07T16:41:10;6.38;;;3.00;;
56667;SDS011;42542;48.360;10.958;2023-05-07T16:44:13;5.70;;;2.88;;
56667;SDS011;42542;48.360;10.958;2023-05-07T16:47:15;5.50;;;2.70;;
56667;SDS011;42542;48.360;10.958;2023-05-07T16:50:17;8.77;;;2.90;;
56667;SDS011;42542;48.360;10.958;2023-05-07T16:53:19;6.43;;;2.63;;
56667;SDS011;42542;48.360;10.958;2023-05-07T16:56:21;5.80;;;2.78;;
56667;SDS011;42542;48.360;10.958;2023-05-07T16:59:23;5.97;;;3.00;;
56667;SDS011;42542;48.360;10.958;2023-05-07T17:02:25;5.53;;;2.80;;
56667;SDS011;42542;48.360;10.958;2023-05-07T17:05:27;5.70;;;2.85;;
56667;SDS011;42542;48.360;10.958;2023-05-07T17:08:29;7.57;;;2.90;;
56667;SDS011;42542;48.360;10.958;2023-05-07T17:11:31;6.07;;;3.00;;
56667;SDS011;42542;48.360;10.958;2023-05-07T17:14:34;5.82;;;2.90;;
56667;SDS011;42542;48.360;10.958;2023-05-07T17:17:36;6.50;;;3.00;;
56667;SDS011;42542;48.360;10.958;2023-05-07T17:20:39;6.57;;;3.00;;
56667;SDS011;42542;48.360;10.958;2023-05-07T17:23:41;5.88;;;2.97;;
56667;SDS011;42542;48.360;10.958;2023-05-07T17:26:43;7.85;;;3.13;;
56667;SDS011;42542;48.360;10.958;2023-05-07T17:29:48;6.10;;;3.10;;
56667;SDS011;42542;48.360;10.958;2023-05-07T17:32:51;7.00;;;3.20;;
56667;SDS011;42542;48.360;10.958;2023-05-07T17:35:53;6.40;;;3.13;;
56667;SDS011;42542;48.360;10.958;2023-05-07T17:38:56;8.00;;;3.20;;
56667;SDS011;42542;48.360;10.958;2023-05-07T17:41:57;6.15;;;3.28;;
56667;SDS011;42542;48.360;10.958;2023-05-07T17:45:00;9.45;;;3.33;;
56667;SDS011;42542;48.360;10.958;2023-05-07T17:48:03;6.80;;;3.30;;
56667;SDS011;42542;48.360;10.958;2023-05-07T17:51:08;7.17;;;3.60;;
56667;SDS011;42542;48.360;10.958;2023-05-07T17:54:10;7.05;;;3.38;;
56667;SDS011;42542;48.360;10.958;2023-05-07T17:57:11;8.05;;;3.60;;
56667;SDS011;42542;48.360;10.958;2023-05-07T18:00:15;7.32;;;3.22;;
56667;SDS011;42542;48.360;10.958;2023-05-07T18:03:17;6.67;;;3.40;;
56667;SDS011;42542;48.360;10.958;2023-05-07T18:06:20;6.85;;;3.38;;
56667;SDS011;42542;48.360;10.958;2023-05-07T18:09:25;6.40;;;3.15;;
56667;SDS011;42542;48.360;10.958;2023-05-07T18:12:27;7.22;;;3.15;;
56667;SDS011;42542;48.360;10.958;2023-05-07T18:15:29;6.40;;;3.20;;
56667;SDS011;42542;48.360;10.958;2023-05-07T18:18:32;7.70;;;3.27;;